EDDK/CGN METAR and TAF weather

Enter ICAO airport designator
Station Type Date Time Source
EDDK METAR 2021/09/27 06:50 UTC NOAA

EDDK 270650Z 13008KT 9999 SCT039 16/14 Q1016 NOSIG


Station Type Date Time Source
EDDK Decoded METAR 2021/09/27 06:50 UTC NOAA

Koeln / Bonn, Germany (EDDK) 50-52N 007-10E 100M
Sep 27, 2021 - 02:50 AM EDT / 2021.09.27 0650 UTC
Wind: from the SE (130 degrees) at 9 MPH (8 KT):0
Visibility: greater than 7 mile(s):0
Sky conditions: partly cloudy
Temperature: 60 F (16 C)
Dew Point: 57 F (14 C)
Relative Humidity: 87%
Pressure (altimeter): 30.00 in. Hg (1016 hPa)
ob: EDDK 270650Z 13008KT 9999 SCT039 16/14 Q1016 NOSIG
cycle: 7

Station Type Date Time Source
EDDK TAF 2021/09/27 06:27 UTC NOAA

TAF EDDK 270500Z 2706/2812 15008KT 9999 SCT030
BECMG 2714/2717 25006KT PROB40
TEMPO 2716/2719 26011KT RA
BECMG 2722/2801 17004KT

Example: see airport list